Date,TemperatureHighF,TemperatureAvgF,TemperatureLowF,DewpointHighF,DewpointAvgF,DewpointLowF,HumidityHigh,HumidityAvg,HumidityLow,PressureMaxIn,PressureMinIn,WindSpeedMaxMPH,WindSpeedAvgMPH,GustSpeedMaxMPH,PrecipitationSumIn
2013-11-1,60,41,27,39,33,26,99,77,40,0.00,40.00,7,4,11,0.00
2013-11-2,46,38,30,38,32,23,96,81,52,0.00,40.00,16,8,29,0.04
2013-11-3,39,32,27,30,25,23,87,75,56,0.00,40.00,12,6,20,0.01
2013-11-4,47,34,24,29,25,22,94,73,49,0.00,40.00,9,4,16,0.00
2013-11-5,44,37,29,42,35,26,99,91,81,0.00,40.00,6,3,10,0.06
2013-11-6,56,45,38,44,42,38,99,91,63,0.00,40.00,5,2,10,0.01
2013-11-7,52,45,39,42,39,33,99,79,58,0.00,40.00,19,10,34,0.02
2013-11-8,51,36,28,34,24,13,96,67,22,0.00,40.00,6,4,11,0.01
2013-11-9,58,38,23,32,25,18,83,61,36,0.00,40.00,6,3,9,0.00
2013-11-10,59,43,31,36,32,27,93,68,39,0.00,40.00,5,3,7,0.00
2013-11-11,60,41,30,32,25,20,82,56,21,0.00,40.00,7,4,10,0.00
2013-11-12,54,49,45,41,32,21,78,54,33,0.00,40.00,5,2,8,0.00
2013-11-13,59,44,32,42,31,14,99,68,17,0.00,40.00,7,5,13,0.00
2013-11-14,52,35,23,29,23,18,80,63,35,0.00,40.00,11,5,19,0.00
2013-11-15,45,32,22,27,24,20,94,73,49,0.00,40.00,12,5,25,0.00
2013-11-16,43,37,33,31,29,25,91,72,58,0.00,40.00,23,11,39,0.00
2013-11-17,49,36,26,31,27,24,93,72,48,0.00,40.00,8,4,15,0.00
2013-11-18,44,37,29,37,30,24,94,76,58,0.00,40.00,10,5,20,0.07
2013-11-19,43,41,38,41,38,37,96,92,82,0.00,40.00,10,7,20,0.39
2013-11-20,39,34,22,38,28,11,99,82,55,0.00,40.00,12,6,23,0.12
2013-11-21,42,26,12,7,-1,-7,55,32,15,0.00,40.00,11,7,22,0.01
2013-11-22,49,30,15,7,4,1,54,35,17,0.00,40.00,10,7,17,0.00
2013-11-23,54,36,25,14,10,6,49,35,20,0.00,40.00,9,6,17,0.00
2013-11-24,51,32,18,18,13,11,75,49,22,0.00,40.00,8,4,12,0.00
2013-11-25,54,32,19,19,13,11,74,49,20,0.00,40.00,8,5,11,0.00
2013-11-26,49,34,23,21,17,13,68,51,32,0.00,40.00,6,4,10,0.00
2013-11-27,50,34,26,25,21,19,76,62,36,0.00,40.00,7,4,11,0.00
2013-11-28,58,36,26,28,23,21,83,62,30,0.00,40.00,8,5,13,0.00
2013-11-29,53,37,24,27,24,20,84,60,35,0.00,40.00,8,5,12,0.00
2013-11-30,55,41,29,36,32,25,92,72,48,0.00,40.00,5,2,8,0.00